Time;durP1;ratioP1;P1;durP2;ratioP2;P2;SDS_P1;SDS_P2;PMS_P1;PMS_P2;Temp;Humidity;BMP_temperature;BMP_pressure;BME280_temperature;BME280_humidity;BME280_pressure;Samples;Min_cycle;Max_cycle;Signal;HPM_P1;HPM_P2
2023/05/23 00:01:06;;;;;;;4.07;3.63;;;;;;;16.76;67.59;94515.41;5084826;28;20193;-45
2023/05/23 00:03:36;;;;;;;4.30;3.90;;;;;;;16.74;67.79;94507.00;5064654;28;20244;-45
2023/05/23 00:06:03;;;;;;;4.60;4.20;;;;;;;16.72;67.54;94503.81;5063615;28;20183;-45
2023/05/23 00:08:30;;;;;;;4.27;3.80;;;;;;;16.70;67.70;94494.63;5052002;28;20191;-45
2023/05/23 00:10:56;;;;;;;3.97;3.57;;;;;;;16.67;67.84;94493.22;5050115;28;20179;-46
2023/05/23 00:13:23;;;;;;;3.83;3.43;;;;;;;16.66;67.76;94495.94;5068635;28;20190;-47
2023/05/23 00:15:51;;;;;;;4.00;3.70;;;;;;;16.61;67.67;94493.91;5068830;28;20225;-44
2023/05/23 00:18:17;;;;;;;4.80;3.77;;;;;;;16.62;67.91;94498.09;5069047;28;20190;-46
2023/05/23 00:20:46;;;;;;;4.23;3.80;;;;;;;16.61;67.84;94496.50;5069333;28;20182;-46
2023/05/23 00:23:17;;;;;;;4.13;3.70;;;;;;;16.58;67.71;94491.69;5069403;28;20673;-46
2023/05/23 00:25:47;;;;;;;3.60;3.30;;;;;;;16.57;67.79;94495.25;5069440;28;20811;-46
2023/05/23 00:28:14;;;;;;;3.70;3.40;;;;;;;16.50;67.82;94479.69;5070075;28;20612;-51
2023/05/23 00:30:41;;;;;;;4.87;4.00;;;;;;;16.49;67.85;94478.09;5069667;28;20201;-46
2023/05/23 00:33:08;;;;;;;3.97;3.67;;;;;;;16.53;68.06;94488.84;5069860;28;20727;-45
2023/05/23 00:35:35;;;;;;;3.73;3.43;;;;;;;16.51;67.87;94503.72;5070239;28;20210;-46
2023/05/23 00:38:03;;;;;;;4.10;3.70;;;;;;;16.49;67.85;94491.00;5069213;28;20191;-45
2023/05/23 00:40:30;;;;;;;3.50;3.20;;;;;;;16.34;68.12;94479.88;5068840;28;20194;-46
2023/05/23 00:42:56;;;;;;;3.40;3.10;;;;;;;16.46;67.89;94500.88;5068673;28;20194;-47
2023/05/23 00:45:23;;;;;;;6.40;4.17;;;;;;;16.43;68.02;94496.84;5068226;28;20197;-46
2023/05/23 00:47:51;;;;;;;3.40;3.10;;;;;;;16.41;67.92;94490.28;5068741;28;20257;-46
2023/05/23 00:50:18;;;;;;;3.60;3.30;;;;;;;16.42;68.09;94489.31;5068727;28;20273;-45
2023/05/23 00:52:46;;;;;;;3.80;3.47;;;;;;;16.40;68.11;94492.03;5068719;28;20199;-45
2023/05/23 00:55:15;;;;;;;4.13;3.50;;;;;;;16.39;68.08;94493.03;5068719;28;20218;-46
2023/05/23 00:57:43;;;;;;;4.87;3.60;;;;;;;16.38;68.16;94498.38;5068702;28;20190;-46
2023/05/23 01:00:11;;;;;;;4.23;3.83;;;;;;;16.37;68.28;94494.19;5068328;28;20735;-46
2023/05/23 01:02:43;;;;;;;4.13;3.60;;;;;;;16.35;68.30;94490.97;5069162;28;20178;-48
2023/05/23 01:05:13;;;;;;;4.20;3.90;;;;;;;16.19;68.29;94466.97;5068502;28;20205;-43
2023/05/23 01:07:40;;;;;;;3.60;3.30;;;;;;;16.28;68.24;94490.91;5068969;28;20625;-44
2023/05/23 01:10:08;;;;;;;3.87;3.57;;;;;;;16.30;68.44;94492.31;5069428;28;20535;-47
2023/05/23 01:12:46;;;;;;;5.03;3.20;;;;;;;16.29;68.29;94502.81;5068433;28;20194;-46
2023/05/23 01:15:16;;;;;;;4.47;3.90;;;;;;;16.26;68.23;94501.38;5071523;28;20671;-45
2023/05/23 01:17:49;;;;;;;4.17;3.60;;;;;;;16.25;68.39;94502.38;5072232;28;20190;-45
2023/05/23 01:20:19;;;;;;;3.80;3.50;;;;;;;16.23;68.45;94496.56;5071733;28;20662;-45
2023/05/23 01:23:13;;;;;;;3.73;3.43;;;;;;;16.21;68.54;94497.75;5072022;28;20715;-42
2023/05/23 01:25:48;;;;;;;4.00;3.60;;;;;;;15.71;68.33;94422.59;5071770;28;20283;-43
2023/05/23 01:28:18;;;;;;;4.00;2.97;;;;;;;16.18;68.58;94500.66;5071494;28;20222;-45
2023/05/23 01:30:47;;;;;;;3.30;3.00;;;;;;;16.16;68.73;94497.47;5071513;28;20201;-45
2023/05/23 01:33:17;;;;;;;3.10;2.80;;;;;;;16.15;68.69;94494.09;5072030;28;20605;-44
2023/05/23 01:35:45;;;;;;;3.63;3.33;;;;;;;16.14;68.43;94495.06;5071233;28;20249;-43
2023/05/23 01:38:11;;;;;;;4.70;3.47;;;;;;;16.13;68.55;94490.09;5071931;28;20255;-45
2023/05/23 01:40:39;;;;;;;3.80;3.37;;;;;;;16.13;68.52;94492.66;5071675;28;20189;-43
2023/05/23 01:43:06;;;;;;;3.93;3.50;;;;;;;16.07;68.59;94485.63;5071665;28;20190;-43
2023/05/23 01:45:35;;;;;;;5.37;3.47;;;;;;;16.10;68.59;94488.66;5071638;28;20190;-44
2023/05/23 01:48:04;;;;;;;3.63;3.33;;;;;;;16.08;68.59;94487.25;5071397;28;20202;-45
2023/05/23 01:50:32;;;;;;;3.97;3.40;;;;;;;16.07;68.58;94489.03;5071565;28;20260;-46
2023/05/23 01:53:00;;;;;;;3.20;2.90;;;;;;;16.06;68.49;94479.66;5071154;28;20201;-45
2023/05/23 01:55:27;;;;;;;4.50;2.80;;;;;;;16.02;68.64;94474.06;5071234;28;20218;-45
2023/05/23 01:57:55;;;;;;;4.57;3.00;;;;;;;16.02;68.51;94476.66;5071121;28;20182;-45
2023/05/23 02:00:23;;;;;;;3.30;3.00;;;;;;;16.00;68.51;94476.00;5071788;28;20213;-44
2023/05/23 02:02:51;;;;;;;4.20;3.27;;;;;;;15.99;68.69;94483.94;5071379;28;20195;-45
2023/05/23 02:05:18;;;;;;;3.03;2.73;;;;;;;15.96;68.75;94477.34;5071435;28;20277;-45
2023/05/23 02:07:44;;;;;;;3.33;2.97;;;;;;;15.95;68.48;94480.91;5070860;28;20641;-46
2023/05/23 02:10:11;;;;;;;7.60;2.90;;;;;;;15.93;68.67;94480.28;5071210;28;20202;-45
2023/05/23 02:12:39;;;;;;;4.77;3.27;;;;;;;15.92;68.68;94483.03;5070643;28;20190;-45
2023/05/23 02:15:07;;;;;;;4.53;2.80;;;;;;;15.90;68.80;94480.63;5070919;28;20265;-44
2023/05/23 02:17:34;;;;;;;3.60;3.30;;;;;;;15.85;68.83;94485.50;5070747;28;20226;-44
2023/05/23 02:20:02;;;;;;;3.03;2.63;;;;;;;15.83;68.79;94492.63;5071071;28;20198;-45
2023/05/23 02:22:29;;;;;;;5.83;2.67;;;;;;;15.84;68.71;94486.47;5070830;28;20641;-43
2023/05/23 02:24:56;;;;;;;4.13;2.60;;;;;;;15.71;68.68;94468.22;5070621;28;20194;-45
2023/05/23 02:27:23;;;;;;;3.00;2.80;;;;;;;15.81;68.93;94484.25;5070257;28;20214;-47
2023/05/23 02:29:50;;;;;;;3.93;3.17;;;;;;;15.76;68.98;94471.09;5070718;28;20197;-44
2023/05/23 02:32:16;;;;;;;2.50;2.30;;;;;;;15.77;68.75;94467.53;5070288;28;20271;-47
2023/05/23 02:34:45;;;;;;;3.70;2.80;;;;;;;15.76;68.78;94471.91;5070455;28;20225;-45
2023/05/23 02:37:14;;;;;;;2.93;2.67;;;;;;;15.75;69.02;94474.63;5070537;28;20753;-45
2023/05/23 02:39:40;;;;;;;3.00;2.57;;;;;;;15.60;68.89;94459.09;5075445;28;20225;-46
2023/05/23 02:42:07;;;;;;;2.70;2.50;;;;;;;15.59;69.01;94449.78;5074863;28;20248;-47
2023/05/23 02:44:34;;;;;;;4.87;3.07;;;;;;;15.70;68.90;94466.63;5070545;28;20364;-46
2023/05/23 02:47:01;;;;;;;4.13;2.70;;;;;;;15.68;69.03;94466.00;5070323;28;20190;-45
2023/05/23 02:49:28;;;;;;;3.00;2.80;;;;;;;15.67;69.11;94465.22;5070344;28;20571;-46
2023/05/23 02:51:54;;;;;;;5.40;2.97;;;;;;;15.66;69.12;94468.75;5070396;28;20197;-46
2023/05/23 02:54:22;;;;;;;3.40;3.07;;;;;;;15.66;69.20;94471.31;5070339;28;20319;-44
2023/05/23 02:56:51;;;;;;;3.40;3.10;;;;;;;15.65;69.17;94464.56;5069806;28;20187;-47
2023/05/23 02:59:18;;;;;;;4.53;3.13;;;;;;;15.67;69.24;94469.53;5070056;28;20213;-46
2023/05/23 03:01:44;;;;;;;3.50;3.07;;;;;;;15.67;69.39;94472.13;5070443;28;20273;-45
2023/05/23 03:04:12;;;;;;;4.07;3.03;;;;;;;15.69;69.13;94476.13;5069888;28;20186;-46
2023/05/23 03:06:40;;;;;;;3.60;3.27;;;;;;;15.72;69.16;94478.38;5070371;28;20190;-46
2023/05/23 03:09:08;;;;;;;4.53;3.67;;;;;;;15.75;69.21;94479.78;5070099;28;20252;-44
2023/05/23 03:11:36;;;;;;;4.13;3.67;;;;;;;15.78;69.28;94476.88;5069591;28;20190;-46
2023/05/23 03:14:03;;;;;;;4.10;3.27;;;;;;;15.82;69.24;94469.59;5069534;28;20232;-46
2023/05/23 03:16:30;;;;;;;3.90;3.60;;;;;;;15.85;69.27;94476.97;5069890;28;20210;-43
2023/05/23 03:18:57;;;;;;;3.67;3.37;;;;;;;15.90;69.28;94477.25;5069991;28;20194;-45
2023/05/23 03:21:24;;;;;;;4.17;3.77;;;;;;;15.93;69.11;94485.44;5069501;28;20634;-46
2023/05/23 03:23:51;;;;;;;4.97;3.57;;;;;;;15.97;69.02;94475.56;5069949;28;20195;-47
2023/05/23 03:26:18;;;;;;;3.57;3.27;;;;;;;15.90;69.07;94461.78;5069471;28;20248;-45
2023/05/23 03:28:46;;;;;;;4.17;3.83;;;;;;;16.04;69.03;94479.84;5069082;28;20831;-45
2023/05/23 03:31:13;;;;;;;4.03;3.40;;;;;;;16.07;69.07;94475.31;5069200;28;20895;-45
2023/05/23 03:33:40;;;;;;;3.90;3.33;;;;;;;16.13;68.85;94485.72;5069367;28;20662;-46
2023/05/23 03:36:07;;;;;;;3.90;3.50;;;;;;;16.18;68.82;94482.59;5069453;28;20245;-43
2023/05/23 03:38:34;;;;;;;4.43;3.73;;;;;;;15.98;68.63;94449.59;5069572;28;20197;-46
2023/05/23 03:41:00;;;;;;;3.70;3.37;;;;;;;16.18;68.67;94477.44;5069467;28;20190;-45
2023/05/23 03:43:27;;;;;;;3.87;3.53;;;;;;;16.25;68.83;94489.47;5069042;28;20331;-44
2023/05/23 03:45:56;;;;;;;3.53;3.23;;;;;;;16.35;68.70;94501.31;5069538;28;20198;-46
2023/05/23 03:48:22;;;;;;;4.30;3.73;;;;;;;16.37;68.65;94502.75;5069834;28;20198;-44
2023/05/23 03:50:49;;;;;;;3.90;3.30;;;;;;;16.42;68.62;94503.00;5069719;28;20187;-47
2023/05/23 03:53:16;;;;;;;5.37;3.87;;;;;;;16.45;68.66;94500.06;5069713;28;20194;-46
2023/05/23 03:55:43;;;;;;;5.30;3.80;;;;;;;16.50;68.60;94508.09;5069126;28;20240;-47
2023/05/23 03:58:10;;;;;;;8.47;4.20;;;;;;;16.54;68.42;94511.13;5068786;28;20255;-45
2023/05/23 04:00:37;;;;;;;7.40;4.30;;;;;;;16.59;68.33;94503.63;5069359;28;20394;-45
2023/05/23 04:03:07;;;;;;;4.47;4.03;;;;;;;16.64;68.27;94509.03;5069017;28;20194;-45
2023/05/23 04:05:34;;;;;;;4.53;4.13;;;;;;;16.70;68.26;94510.09;5069240;28;20575;-45
2023/05/23 04:08:01;;;;;;;7.53;4.50;;;;;;;16.73;68.09;94502.03;5068436;28;20269;-46
2023/05/23 04:10:27;;;;;;;4.83;4.33;;;;;;;16.79;68.18;94503.88;5069053;28;20555;-43
2023/05/23 04:12:55;;;;;;;5.30;4.20;;;;;;;16.86;68.01;94504.78;5069489;28;20201;-43
2023/05/23 04:15:23;;;;;;;4.10;3.70;;;;;;;16.91;68.00;94499.06;5069161;28;20202;-46
2023/05/23 04:17:51;;;;;;;5.63;4.60;;;;;;;16.94;67.87;94506.47;5067618;28;20174;-45
2023/05/23 04:20:19;;;;;;;4.40;3.97;;;;;;;17.01;67.87;94508.16;5069735;28;20221;-46
2023/05/23 04:22:46;;;;;;;9.83;4.67;;;;;;;17.06;67.82;94505.00;5069063;28;20194;-48
2023/05/23 04:25:13;;;;;;;5.40;4.43;;;;;;;17.10;67.85;94495.91;5068728;28;20614;-45
2023/05/23 04:27:40;;;;;;;5.20;4.40;;;;;;;17.15;67.69;94490.19;5068075;28;20222;-45
2023/05/23 04:30:08;;;;;;;5.37;4.53;;;;;;;17.18;67.92;94494.97;5068954;28;20702;-46
2023/05/23 04:32:36;;;;;;;4.83;4.43;;;;;;;17.22;67.82;94491.06;5069568;28;20187;-46
2023/05/23 04:35:03;;;;;;;6.27;4.70;;;;;;;17.24;67.65;94497.66;5069246;28;20190;-45
2023/05/23 04:37:31;;;;;;;5.40;4.70;;;;;;;17.23;67.90;94490.88;5068325;28;20273;-45
2023/05/23 04:39:58;;;;;;;6.17;4.63;;;;;;;17.20;67.86;94487.88;5068589;28;20241;-44
2023/05/23 04:42:26;;;;;;;5.00;4.47;;;;;;;17.30;67.73;94507.25;5069027;28;20719;-46
2023/05/23 04:44:56;;;;;;;7.00;4.60;;;;;;;17.30;67.83;94504.66;5069187;28;20232;-45
2023/05/23 04:47:23;;;;;;;8.17;5.33;;;;;;;17.30;67.90;94503.88;5070246;28;20217;-45
2023/05/23 04:49:52;;;;;;;5.50;5.00;;;;;;;17.29;67.83;94510.81;5074777;28;20224;-47
2023/05/23 04:52:19;;;;;;;8.20;4.80;;;;;;;17.33;67.82;94515.63;5072877;28;20190;-45
2023/05/23 04:54:47;;;;;;;6.13;4.90;;;;;;;17.33;67.88;94515.63;5072701;28;20550;-44
2023/05/23 04:57:14;;;;;;;4.97;4.47;;;;;;;17.32;67.83;94521.78;5072118;28;20331;-45
2023/05/23 04:59:41;;;;;;;5.17;4.67;;;;;;;17.28;67.76;94513.59;5072923;28;20232;-46
2023/05/23 05:02:09;;;;;;;6.57;5.10;;;;;;;17.36;67.70;94521.25;5072611;28;20191;-45
2023/05/23 05:04:36;;;;;;;5.23;4.60;;;;;;;17.38;67.73;94524.44;5071973;28;20252;-46
2023/05/23 05:07:03;;;;;;;5.23;4.50;;;;;;;17.42;67.56;94517.13;5071698;28;20269;-50
2023/05/23 05:09:30;;;;;;;5.77;4.57;;;;;;;17.47;67.42;94525.91;5072221;28;20190;-43
2023/05/23 05:11:59;;;;;;;9.33;3.17;;;;;;;17.87;87.61;94526.28;5073074;28;20282;-45
2023/05/23 05:14:26;;;;;;;7.10;3.60;;;;;;;18.03;90.92;94489.00;5081561;28;20179;-46
2023/05/23 05:16:53;;;;;;;3.13;2.93;;;;;;;18.65;90.42;94536.59;5072704;28;20269;-45
2023/05/23 05:19:20;;;;;;;6.40;4.93;;;;;;;18.90;87.37;94537.75;5072672;28;20282;-47
2023/05/23 05:21:47;;;;;;;6.47;4.50;;;;;;;18.99;84.97;94540.97;5071746;28;20264;-44
2023/05/23 05:24:15;;;;;;;6.03;4.40;;;;;;;19.02;82.90;94538.00;5072232;28;20209;-47
2023/05/23 05:26:43;;;;;;;5.73;4.30;;;;;;;19.04;81.31;94533.41;5071066;28;20224;-47
2023/05/23 05:29:11;;;;;;;6.30;4.63;;;;;;;19.06;79.85;94534.03;5071971;28;20687;-44
2023/05/23 05:31:39;;;;;;;6.57;4.93;;;;;;;19.07;78.71;94525.25;5071939;28;20724;-45
2023/05/23 05:34:06;;;;;;;6.27;5.53;;;;;;;19.10;77.74;94526.66;5071980;28;20666;-46
2023/05/23 05:36:33;;;;;;;9.07;5.00;;;;;;;18.61;76.98;94453.31;5071778;28;20993;-46
2023/05/23 05:39:01;;;;;;;7.43;5.60;;;;;;;19.13;76.25;94534.03;5071969;28;20642;-45
2023/05/23 05:41:28;;;;;;;7.53;5.20;;;;;;;19.15;75.66;94539.84;5068167;28;20206;-45
2023/05/23 05:43:55;;;;;;;7.03;4.73;;;;;;;19.14;75.03;94539.03;5062813;28;20685;-45
2023/05/23 05:46:23;;;;;;;9.40;4.93;;;;;;;19.19;74.41;94538.47;5071285;28;20194;-47
2023/05/23 05:48:50;;;;;;;7.07;5.60;;;;;;;19.22;73.88;94540.69;5070617;28;20187;-44
2023/05/23 05:51:17;;;;;;;5.63;5.13;;;;;;;19.27;73.38;94549.47;5069480;28;20304;-42
2023/05/23 05:53:43;;;;;;;6.37;5.73;;;;;;;19.32;72.77;94548.09;5069380;28;20210;-46
2023/05/23 05:56:10;;;;;;;7.03;5.00;;;;;;;19.43;72.33;94550.09;5070128;28;20206;-46
2023/05/23 05:58:37;;;;;;;6.23;5.63;;;;;;;19.55;71.75;94548.53;5069107;28;20191;-43
2023/05/23 06:01:04;;;;;;;5.77;5.27;;;;;;;19.70;70.99;94541.41;5066729;28;20195;-44
2023/05/23 06:03:32;;;;;;;9.13;5.67;;;;;;;18.88;70.45;94389.44;5068108;28;20616;-45
2023/05/23 06:05:59;;;;;;;9.83;5.90;;;;;;;19.99;70.06;94539.44;5069020;28;20270;-46
2023/05/23 06:08:26;;;;;;;7.87;5.60;;;;;;;20.12;69.61;94546.41;5067450;28;20248;-46
2023/05/23 06:10:55;;;;;;;6.30;5.70;;;;;;;20.26;69.17;94543.63;5068121;28;20186;-46
2023/05/23 06:13:22;;;;;;;6.73;5.97;;;;;;;20.41;68.57;94540.00;5067540;28;20237;-47
2023/05/23 06:15:49;;;;;;;6.17;5.57;;;;;;;20.49;68.13;94538.03;5067915;28;20225;-44
2023/05/23 06:18:15;;;;;;;5.93;5.43;;;;;;;20.65;67.75;94539.41;5067602;28;20186;-47
2023/05/23 06:20:44;;;;;;;13.45;5.93;;;;;;;20.82;67.40;94542.38;5067902;28;20198;-44
2023/05/23 06:23:10;;;;;;;9.70;6.13;;;;;;;21.03;66.65;94560.31;5067002;28;20195;-45
2023/05/23 06:25:37;;;;;;;6.27;5.47;;;;;;;21.28;66.08;94546.59;5067998;28;20178;-45
2023/05/23 06:28:04;;;;;;;8.02;6.30;;;;;;;21.62;65.37;94552.44;5068069;28;20230;-45
2023/05/23 06:30:31;;;;;;;7.97;5.30;;;;;;;22.10;65.03;94550.13;5067624;28;20197;-43
2023/05/23 06:32:57;;;;;;;6.18;5.57;;;;;;;22.58;64.82;94548.72;5066234;28;20217;-45
2023/05/23 06:35:24;;;;;;;6.28;5.68;;;;;;;22.96;64.36;94561.63;5065740;28;20194;-44
2023/05/23 06:37:52;;;;;;;6.47;5.28;;;;;;;23.40;63.58;94555.28;5067288;28;20190;-45
2023/05/23 06:40:19;;;;;;;6.40;5.15;;;;;;;23.88;62.50;94543.22;5065425;28;20198;-44
2023/05/23 06:42:46;;;;;;;8.13;5.35;;;;;;;24.37;62.12;94542.06;5067640;28;20621;-44
2023/05/23 06:45:13;;;;;;;5.90;5.20;;;;;;;24.91;61.46;94547.94;5064219;28;20247;-46
2023/05/23 06:47:42;;;;;;;7.82;4.95;;;;;;;25.43;61.15;94542.72;5066979;28;20665;-44
2023/05/23 06:50:10;;;;;;;5.60;4.80;;;;;;;26.07;60.63;94537.28;5066634;28;20313;-44
2023/05/23 06:52:36;;;;;;;10.88;4.97;;;;;;;26.79;60.16;94543.63;5067019;28;20194;-43
2023/05/23 06:55:06;;;;;;;5.20;4.38;;;;;;;27.55;60.03;94539.31;5068916;28;20197;-45
2023/05/23 06:57:33;;;;;;;6.13;5.03;;;;;;;28.34;59.26;94538.72;5071650;28;20222;-44
2023/05/23 06:59:59;;;;;;;5.03;4.57;;;;;;;29.11;58.36;94536.59;5066504;28;20681;-45
2023/05/23 07:02:26;;;;;;;4.28;3.88;;;;;;;29.89;57.12;94532.06;5066870;28;20186;-45
2023/05/23 07:04:53;;;;;;;5.07;4.18;;;;;;;30.66;55.96;94540.78;5066492;28;20186;-44
2023/05/23 07:07:20;;;;;;;5.60;4.18;;;;;;;31.41;54.93;94540.06;5066907;28;20198;-43
2023/05/23 07:09:46;;;;;;;5.78;3.65;;;;;;;32.12;54.11;94534.34;5066424;28;20198;-43
2023/05/23 07:12:15;;;;;;;5.90;4.32;;;;;;;32.82;52.81;94530.56;5066365;28;20271;-44
2023/05/23 07:14:41;;;;;;;5.88;4.40;;;;;;;33.49;51.77;94533.28;5066601;28;20198;-47
2023/05/23 07:17:08;;;;;;;4.88;3.75;;;;;;;34.11;50.93;94521.53;5066210;28;20617;-45
2023/05/23 07:19:35;;;;;;;4.47;3.80;;;;;;;34.67;50.00;94517.13;5065736;28;20198;-45
2023/05/23 07:22:02;;;;;;;4.03;3.42;;;;;;;35.19;49.16;94526.56;5066001;28;20198;-46
2023/05/23 07:24:29;;;;;;;8.32;3.83;;;;;;;35.68;48.37;94521.56;5066473;28;20205;-47
2023/05/23 07:26:55;;;;;;;3.38;2.70;;;;;;;35.99;45.30;94515.56;5063876;28;20255;-47
2023/05/23 07:29:24;;;;;;;9.00;3.40;;;;;;;36.14;42.65;94517.84;5066462;28;20190;-46
2023/05/23 07:31:50;;;;;;;3.65;2.75;;;;;;;36.34;41.53;94516.59;5063498;28;20202;-45
2023/05/23 07:34:17;;;;;;;3.40;2.65;;;;;;;36.61;40.98;94513.78;5065196;28;20271;-44
2023/05/23 07:36:44;;;;;;;3.45;2.90;;;;;;;36.94;40.97;94515.38;5065606;28;20210;-46
2023/05/23 07:39:11;;;;;;;5.78;3.05;;;;;;;37.26;40.64;94516.84;5068721;28;20178;-44
2023/05/23 07:41:38;;;;;;;3.97;3.03;;;;;;;37.58;40.13;94513.03;5068781;28;20194;-44
2023/05/23 07:44:05;;;;;;;4.15;2.90;;;;;;;37.83;40.11;94512.25;5068774;28;20646;-45
2023/05/23 07:46:33;;;;;;;6.50;2.97;;;;;;;38.08;39.69;94510.66;5069595;28;20221;-44
2023/05/23 07:49:00;;;;;;;3.78;2.70;;;;;;;38.27;39.70;94507.69;5072213;28;20179;-45
2023/05/23 07:51:27;;;;;;;4.05;3.03;;;;;;;38.49;38.82;94504.03;5069316;28;20842;-45
2023/05/23 07:53:54;;;;;;;4.43;3.13;;;;;;;38.69;38.67;94513.25;5068352;28;20195;-43
2023/05/23 07:56:20;;;;;;;5.00;2.75;;;;;;;38.87;38.49;94511.34;5068248;28;20320;-45
2023/05/23 07:58:48;;;;;;;3.25;2.75;;;;;;;39.02;38.26;94512.66;5067942;28;20221;-46
2023/05/23 08:01:15;;;;;;;4.13;3.15;;;;;;;39.12;37.79;94499.72;5068271;28;20193;-45
2023/05/23 08:03:43;;;;;;;4.32;3.22;;;;;;;39.26;36.81;94502.19;5067348;28;20191;-44
2023/05/23 08:06:10;;;;;;;4.72;3.45;;;;;;;39.35;36.78;94502.91;5068190;28;20655;-45
2023/05/23 08:08:36;;;;;;;6.00;3.65;;;;;;;39.34;36.60;94485.28;5067581;28;20201;-44
2023/05/23 08:11:03;;;;;;;7.22;3.00;;;;;;;39.48;36.62;94498.41;5068189;28;20194;-45
2023/05/23 08:13:30;;;;;;;6.55;3.13;;;;;;;39.53;36.53;94502.78;5068051;28;20194;-46
2023/05/23 08:15:57;;;;;;;4.15;3.75;;;;;;;39.54;35.76;94502.47;5068235;28;20277;-46
2023/05/23 08:18:24;;;;;;;7.65;3.28;;;;;;;39.41;35.76;94482.09;5068009;28;20205;-45
2023/05/23 08:20:53;;;;;;;5.65;3.95;;;;;;;39.54;36.09;94504.34;5068059;28;20198;-44
2023/05/23 08:23:20;;;;;;;8.30;4.30;;;;;;;39.51;35.52;94502.31;5068463;28;20190;-44
2023/05/23 08:25:47;;;;;;;5.72;3.38;;;;;;;39.46;35.73;94502.53;5072182;28;20197;-46
2023/05/23 08:28:14;;;;;;;6.70;4.30;;;;;;;39.41;35.16;94505.38;5071879;28;20593;-46
2023/05/23 08:30:41;;;;;;;6.88;3.90;;;;;;;39.36;35.39;94501.03;5072030;28;20186;-45
2023/05/23 08:33:08;;;;;;;5.15;4.55;;;;;;;39.30;35.09;94503.09;5072210;28;20622;-45
2023/05/23 08:35:35;;;;;;;10.38;4.32;;;;;;;39.23;35.18;94502.81;5071720;28;20216;-46
2023/05/23 08:38:06;;;;;;;5.45;4.15;;;;;;;39.10;35.12;94488.53;5072191;28;20233;-46
2023/05/23 08:40:36;;;;;;;5.78;4.35;;;;;;;38.89;35.25;94469.78;5071840;28;20273;-47
2023/05/23 08:43:06;;;;;;;4.95;4.38;;;;;;;38.87;35.03;94489.94;5051587;28;20651;-44
2023/05/23 08:45:34;;;;;;;5.25;4.25;;;;;;;38.61;35.28;94473.97;5071181;28;20569;-45
2023/05/23 08:48:02;;;;;;;6.57;4.85;;;;;;;38.57;35.21;94487.19;5070212;28;20190;-46
2023/05/23 08:50:30;;;;;;;7.47;4.38;;;;;;;38.45;35.36;94488.97;5071131;28;20248;-46
2023/05/23 08:52:59;;;;;;;7.93;4.78;;;;;;;38.29;35.75;94486.75;5072250;28;20194;-46
2023/05/23 08:55:29;;;;;;;10.07;4.68;;;;;;;38.12;35.24;94482.22;5071145;28;20210;-46
2023/05/23 08:57:59;;;;;;;7.00;4.90;;;;;;;37.99;35.87;94490.41;5070066;28;20224;-45
2023/05/23 09:00:26;;;;;;;9.93;4.72;;;;;;;37.73;35.64;94472.50;5067064;28;20971;-44
2023/05/23 09:02:53;;;;;;;6.85;5.05;;;;;;;37.65;35.71;94487.44;5070604;28;20190;-45
2023/05/23 09:05:21;;;;;;;5.10;4.15;;;;;;;37.48;35.81;94476.75;5068550;28;20209;-44
2023/05/23 09:07:49;;;;;;;6.97;4.57;;;;;;;37.32;35.97;94475.59;5067997;28;20289;-45
2023/05/23 09:10:16;;;;;;;7.63;4.95;;;;;;;37.15;35.87;94479.03;5071347;28;20187;-45
2023/05/23 09:12:45;;;;;;;5.32;4.72;;;;;;;36.98;36.24;94485.09;5071329;28;20286;-46
2023/05/23 09:15:12;;;;;;;9.80;4.90;;;;;;;36.83;36.01;94477.47;5071457;28;20662;-44
2023/05/23 09:17:39;;;;;;;8.77;5.32;;;;;;;36.67;36.08;94469.91;5070818;28;20213;-46
2023/05/23 09:20:12;;;;;;;6.32;4.95;;;;;;;36.46;36.64;94460.91;5071690;28;20182;-47
2023/05/23 09:22:38;;;;;;;8.73;5.45;;;;;;;36.36;36.49;94463.81;5070495;28;20244;-44
2023/05/23 09:25:06;;;;;;;6.18;4.30;;;;;;;36.20;36.42;94466.06;5071435;28;20194;-45
2023/05/23 09:27:34;;;;;;;10.10;4.97;;;;;;;36.01;36.54;94457.47;5070461;28;20249;-46
2023/05/23 09:30:08;;;;;;;5.65;4.65;;;;;;;35.80;36.76;94459.84;5068524;28;20195;-49
2023/05/23 09:32:34;;;;;;;6.95;5.50;;;;;;;35.51;36.67;94458.34;5070066;28;20671;-46
2023/05/23 09:35:02;;;;;;;6.95;4.72;;;;;;;35.36;37.12;94469.28;5071164;28;20187;-46
2023/05/23 09:37:31;;;;;;;6.68;4.85;;;;;;;35.08;37.02;94461.38;5070440;28;20218;-45
2023/05/23 09:40:00;;;;;;;5.00;4.40;;;;;;;34.77;37.19;94453.19;5070864;28;20201;-48
2023/05/23 09:42:32;;;;;;;5.00;4.50;;;;;;;34.59;37.40;94459.41;5070329;28;20629;-43
2023/05/23 09:45:00;;;;;;;9.70;4.68;;;;;;;34.32;37.54;94457.44;5070592;28;20665;-45
2023/05/23 09:47:28;;;;;;;4.97;4.57;;;;;;;34.06;37.67;94452.56;5070605;28;20623;-46
2023/05/23 09:49:55;;;;;;;5.55;4.45;;;;;;;33.79;37.87;94442.66;5070480;28;20195;-47
2023/05/23 09:52:22;;;;;;;5.65;4.40;;;;;;;33.48;38.42;94441.53;5070623;28;20565;-46
2023/05/23 09:54:49;;;;;;;5.03;4.05;;;;;;;33.24;38.75;94447.66;5070425;28;20240;-44
2023/05/23 09:57:17;;;;;;;6.93;4.22;;;;;;;33.07;38.76;94447.34;5069766;28;20233;-44
2023/05/23 09:59:51;;;;;;;6.45;4.13;;;;;;;32.89;38.99;94427.69;5070523;28;20572;-47
2023/05/23 10:02:44;;;;;;;5.13;4.05;;;;;;;32.72;38.89;94436.09;5068938;28;20190;-45
2023/05/23 10:05:25;;;;;;;4.15;3.60;;;;;;;32.56;39.23;94437.38;5070430;28;20194;-44
2023/05/23 10:07:52;;;;;;;7.15;4.38;;;;;;;32.35;39.16;94442.84;5069758;28;20201;-46
2023/05/23 10:10:20;;;;;;;4.38;3.97;;;;;;;32.15;39.55;94427.16;5069595;28;20681;-44
2023/05/23 10:12:51;;;;;;;4.53;4.13;;;;;;;32.01;39.59;94429.66;5067131;28;20187;-43
2023/05/23 10:15:20;;;;;;;5.45;3.90;;;;;;;31.70;40.08;94411.38;5067610;28;20187;-43
2023/05/23 10:18:02;;;;;;;4.10;3.60;;;;;;;31.66;40.09;94430.72;5070304;28;20206;-45
2023/05/23 10:20:31;;;;;;;4.68;3.58;;;;;;;31.54;39.90;94432.91;5072733;28;20674;-47
2023/05/23 10:23:01;;;;;;;5.78;4.05;;;;;;;31.40;40.53;94435.41;5071940;28;20711;-45
2023/05/23 10:25:31;;;;;;;5.28;3.47;;;;;;;31.26;40.67;94434.38;5070039;28;20197;-45
2023/05/23 10:28:00;;;;;;;6.32;3.78;;;;;;;31.05;40.83;94428.44;5069369;28;20245;-45
2023/05/23 10:30:27;;;;;;;5.00;3.78;;;;;;;30.93;40.77;94428.75;5069945;28;20183;-45
2023/05/23 10:32:57;;;;;;;5.88;4.18;;;;;;;30.82;40.99;94425.34;5069122;28;20550;-45
2023/05/23 10:35:37;;;;;;;7.22;3.67;;;;;;;30.78;40.96;94429.59;5069563;28;20273;-43
2023/05/23 10:38:12;;;;;;;4.95;3.70;;;;;;;30.72;41.42;94422.78;5067052;28;20206;-45
2023/05/23 10:40:50;;;;;;;4.63;3.53;;;;;;;30.54;41.41;94402.22;5069253;28;20696;-44
2023/05/23 10:43:23;;;;;;;4.38;3.40;;;;;;;30.49;41.39;94414.38;5069502;28;20233;-44
2023/05/23 10:45:50;;;;;;;5.75;3.80;;;;;;;30.43;41.67;94423.34;5066625;28;20189;-43
2023/05/23 10:48:23;;;;;;;3.72;3.42;;;;;;;30.34;41.51;94409.13;5068786;28;20224;-44
2023/05/23 10:51:07;;;;;;;4.15;3.75;;;;;;;30.23;41.67;94408.38;5066573;28;20180;-44
2023/05/23 10:53:36;;;;;;;3.70;3.38;;;;;;;30.14;42.13;94403.88;5069526;28;20581;-45
2023/05/23 10:56:05;;;;;;;3.80;3.50;;;;;;;30.12;42.02;94409.41;5069166;28;20198;-44
2023/05/23 10:58:33;;;;;;;3.60;3.30;;;;;;;30.08;42.07;94405.72;5068041;28;20214;-43
2023/05/23 11:01:02;;;;;;;5.00;3.80;;;;;;;30.08;41.72;94410.22;5069384;28;20792;-44
2023/05/23 11:03:38;;;;;;;4.03;3.13;;;;;;;30.02;42.04;94403.38;5069129;28;20190;-45
2023/05/23 11:06:05;;;;;;;4.57;3.17;;;;;;;29.96;42.18;94400.72;5066385;28;20186;-45
2023/05/23 11:08:41;;;;;;;3.97;3.22;;;;;;;29.86;41.90;94395.47;5071277;28;20209;-44
2023/05/23 11:11:08;;;;;;;5.78;3.35;;;;;;;29.71;42.61;94393.66;5067616;28;20198;-45
2023/05/23 11:13:55;;;;;;;3.35;3.05;;;;;;;29.60;42.50;94393.91;5069345;28;20259;-46
2023/05/23 11:16:26;;;;;;;4.53;3.20;;;;;;;29.49;42.77;94385.16;5069016;28;20206;-45
2023/05/23 11:19:13;;;;;;;4.47;3.00;;;;;;;29.37;42.93;94401.25;5069000;28;20210;-45
2023/05/23 11:21:40;;;;;;;3.97;2.75;;;;;;;29.25;43.00;94392.81;5068747;28;20555;-45
2023/05/23 11:24:09;;;;;;;3.88;3.00;;;;;;;29.19;42.78;94389.38;5070750;28;20301;-46
2023/05/23 11:26:36;;;;;;;4.88;3.35;;;;;;;29.04;43.19;94370.91;5070943;28;20209;-46
2023/05/23 11:29:08;;;;;;;10.77;2.88;;;;;;;29.14;43.17;94386.72;5070524;28;20198;-44
2023/05/23 11:31:39;;;;;;;3.58;3.00;;;;;;;29.00;42.91;94368.00;5068325;28;20248;-45
2023/05/23 11:34:07;;;;;;;3.47;3.17;;;;;;;29.07;43.21;94377.50;5069311;28;20208;-44
2023/05/23 11:36:35;;;;;;;5.80;3.28;;;;;;;29.03;42.97;94368.56;5069287;28;20186;-44
2023/05/23 11:39:03;;;;;;;5.38;3.28;;;;;;;28.99;42.69;94371.69;5069532;28;20677;-43